Pagina principale
METAR-TAF:

METAR-TAF

Aeroporti :

Juigalpa, Nicaragua

latitudine: 12-06N, longitudine: 085-22W, altezza: 90 m

Osservazione

Il bollettino è stato emesso 28 minuti fa, alle 19:00 UTC
Vento 4 kt da sud
Temperature 26°C
Umidità 94%
Pressione 1009 hPa
Visibilità 10 km o più
Nubi sparse ad un'altezza di 2000 ft, Cumulo congesto.
Nubi sparse ad un'altezza di 8000 ft

METAR: MNJU 161900Z 18004KT 9999 SCT020TCU SCT080 26/25 Q1009 RERA TCU/NE/NE/E

Ora: 13:28 (19:28 UTC)


TAF: mancante

Osservazioni e previsioni meteorologiche di più di 4000 aeroporti (messaggi METAR e TAF).

Le stazioni disponibili sono rappresentate dai dischi gialli e rossi sulla carta.

Puntare il mouse per vedere il nome della stazione.

Clicca sopra per visualizzare le osservazioni e previsioni meteorologiche.

Per cambiare la mappa : fare clic sui pulsanti verdi con una croce nera per ingrandire, il pulsante verde con un trattino per diminuire, o sulla freccia verde per le mappe adiacenti.


METAR-TAF: